Time;durP1;ratioP1;P1;durP2;ratioP2;P2;SDS_P1;SDS_P2;PMS_P1;PMS_P2;Temp;Humidity;BMP_temperature;BMP_pressure;BME280_temperature;BME280_humidity;BME280_pressure;Samples;Min_cycle;Max_cycle;Signal;HPM_P1;HPM_P2
2022/06/12 00:00:25;;;;;;;7.06;5.58;;;18.20;99.90;;;;;;4670167;28;10001370;-70
2022/06/12 00:02:51;;;;;;;7.00;5.40;;;18.30;99.90;;;;;;5010878;28;20036;-70
2022/06/12 00:05:19;;;;;;;7.57;5.10;;;18.30;99.90;;;;;;5019361;28;20231;-70
2022/06/12 00:07:45;;;;;;;6.15;5.53;;;18.40;99.90;;;;;;5011975;28;20112;-70
2022/06/12 00:10:12;;;;;;;6.95;5.53;;;18.40;99.90;;;;;;5023357;28;20132;-70
2022/06/12 00:12:40;;;;;;;5.70;4.90;;;18.40;99.90;;;;;;5023380;28;20022;-70
2022/06/12 00:15:07;;;;;;;5.82;5.00;;;18.40;99.90;;;;;;5024961;28;20090;-70
2022/06/12 00:17:33;;;;;;;6.45;4.03;;;18.40;99.90;;;;;;5011969;28;20054;-70
2022/06/12 00:19:58;;;;;;;9.10;4.07;;;18.40;99.90;;;;;;5012982;28;20157;-70
2022/06/12 00:22:24;;;;;;;5.13;3.67;;;18.40;99.90;;;;;;5024251;28;20029;-70
2022/06/12 00:24:51;;;;;;;5.60;3.92;;;18.40;99.90;;;;;;5024696;28;20049;-70
2022/06/12 00:27:16;;;;;;;7.25;4.00;;;18.40;99.90;;;;;;5026283;28;20041;-70
2022/06/12 00:29:44;;;;;;;5.45;3.63;;;18.40;99.90;;;;;;5020783;28;20025;-70
2022/06/12 00:32:13;;;;;;;4.53;3.45;;;18.50;99.90;;;;;;5023335;28;20120;-70
2022/06/12 00:34:44;;;;;;;4.10;3.70;;;18.50;99.90;;;;;;5022369;28;20058;-70
2022/06/12 00:37:11;;;;;;;8.30;4.85;;;18.50;99.90;;;;;;5018553;28;20485;-70
2022/06/12 00:39:38;;;;;;;6.10;5.53;;;18.40;99.90;;;;;;5019323;28;20034;-70
2022/06/12 00:42:06;;;;;;;5.85;5.35;;;18.30;99.90;;;;;;5019827;28;20041;-70
2022/06/12 00:44:38;;;;;;;5.82;5.15;;;18.20;99.90;;;;;;5022398;28;20568;-70
2022/06/12 00:47:08;;;;;;;4.75;4.35;;;18.10;99.90;;;;;;5022114;28;20505;-70
2022/06/12 00:49:43;;;;;;;4.75;4.32;;;18.10;99.90;;;;;;5020377;28;20030;-70
2022/06/12 00:52:14;;;;;;;4.97;4.47;;;18.10;99.90;;;;;;5025340;28;20029;-70
2022/06/12 00:54:42;;;;;;;4.45;4.05;;;18.00;99.90;;;;;;5026234;28;20021;-70
2022/06/12 00:57:08;;;;;;;4.00;3.60;;;18.00;99.90;;;;;;5023751;28;20120;-69
2022/06/12 00:59:42;;;;;;;4.40;4.00;;;17.90;99.90;;;;;;5015299;28;20040;-70
2022/06/12 01:02:12;;;;;;;4.20;3.90;;;17.80;99.90;;;;;;5027635;28;20025;-70
2022/06/12 01:07:28;;;;;;;4.53;4.10;;;17.70;99.90;;;;;;5023069;28;20109;-70
2022/06/12 01:09:56;;;;;;;3.50;3.20;;;17.70;99.90;;;;;;5017222;28;20036;-70
2022/06/12 01:12:25;;;;;;;4.82;3.25;;;17.50;99.90;;;;;;5016973;28;20088;-70
2022/06/12 01:14:57;;;;;;;5.15;3.78;;;17.50;99.90;;;;;;5022419;28;20417;-70
2022/06/12 01:17:25;;;;;;;4.18;3.28;;;17.40;99.90;;;;;;5021539;28;20433;-70
2022/06/12 01:19:58;;;;;;;4.50;3.35;;;17.40;99.90;;;;;;5022593;28;20059;-70
2022/06/12 01:22:29;;;;;;;5.78;3.72;;;17.40;99.90;;;;;;5021241;28;20029;-70
2022/06/12 01:25:27;;;;;;;5.22;4.00;;;17.50;99.90;;;;;;5009429;28;20029;-70
2022/06/12 01:28:27;;;;;;;4.53;4.05;;;17.40;99.90;;;;;;5021192;28;20025;-70
2022/06/12 01:30:59;;;;;;;4.75;3.85;;;17.40;99.90;;;;;;5014611;28;20498;-70
2022/06/12 01:33:29;;;;;;;7.30;4.00;;;17.40;99.90;;;;;;5020378;28;20430;-70
2022/06/12 01:36:08;;;;;;;7.13;4.78;;;17.30;99.90;;;;;;5021935;28;20025;-70
2022/06/12 01:38:58;;;;;;;6.22;5.63;;;17.30;99.90;;;;;;5017959;28;20463;-71
2022/06/12 01:41:50;;;;;;;5.85;5.00;;;17.20;99.90;;;;;;5016463;28;20037;-71
2022/06/12 01:44:31;;;;;;;5.75;4.60;;;17.20;99.90;;;;;;5016867;28;20401;-70
2022/06/12 01:46:58;;;;;;;6.90;5.13;;;17.10;99.90;;;;;;5021838;28;20033;-70
2022/06/12 01:49:49;;;;;;;4.43;3.80;;;17.10;99.90;;;;;;5012691;28;20065;-70
2022/06/12 01:52:39;;;;;;;4.35;3.80;;;17.00;99.90;;;;;;5014549;28;20037;-70
2022/06/12 01:55:24;;;;;;;5.38;3.88;;;17.00;99.90;;;;;;5018553;28;20029;-69
2022/06/12 01:58:17;;;;;;;4.15;3.72;;;17.00;99.90;;;;;;5016021;28;20033;-70
2022/06/12 02:00:49;;;;;;;6.13;4.43;;;17.00;99.90;;;;;;5016017;28;20037;-70
2022/06/12 02:03:40;;;;;;;7.57;5.30;;;16.90;99.90;;;;;;5019203;28;20032;-70
2022/06/12 02:06:14;;;;;;;6.25;5.65;;;16.90;99.90;;;;;;5016623;28;20129;-69
2022/06/12 02:08:47;;;;;;;6.15;5.28;;;16.90;99.90;;;;;;5015237;28;20601;-70
2022/06/12 02:14:25;;;;;;;9.40;5.82;;;17.00;99.90;;;;;;5018499;28;20049;-70
2022/06/12 02:16:55;;;;;;;6.85;5.90;;;17.00;99.90;;;;;;5021126;28;20071;-70
2022/06/12 02:19:31;;;;;;;6.13;5.53;;;17.00;99.90;;;;;;5014624;28;20042;-70
2022/06/12 02:22:23;;;;;;;5.40;4.90;;;17.10;99.90;;;;;;5023978;28;20041;-71
2022/06/12 02:25:03;;;;;;;8.10;6.38;;;17.10;99.90;;;;;;5024231;28;20493;-70
2022/06/12 02:27:34;;;;;;;7.35;6.10;;;17.00;99.90;;;;;;5024181;28;20028;-70
2022/06/12 02:30:10;;;;;;;6.25;5.45;;;17.00;99.90;;;;;;5021678;28;20025;-70
2022/06/12 02:32:46;;;;;;;7.50;5.28;;;17.00;99.90;;;;;;5028071;28;20029;-70
2022/06/12 02:35:39;;;;;;;4.57;4.18;;;17.00;99.90;;;;;;5021616;28;20057;-70
2022/06/12 02:38:13;;;;;;;4.27;3.83;;;17.00;99.90;;;;;;5029072;28;20092;-70
2022/06/12 02:40:43;;;;;;;4.38;3.97;;;16.90;99.90;;;;;;5024672;28;20285;-70
2022/06/12 02:43:16;;;;;;;4.43;4.00;;;16.90;99.90;;;;;;5030613;28;20053;-70
2022/06/12 02:45:48;;;;;;;4.82;4.05;;;16.80;99.90;;;;;;5025492;28;20030;-70
2022/06/12 02:48:14;;;;;;;4.57;3.20;;;16.90;99.90;;;;;;5023207;28;20040;-70
2022/06/12 02:51:03;;;;;;;4.55;3.25;;;16.90;99.90;;;;;;5024858;28;20030;-70
2022/06/12 02:53:37;;;;;;;4.80;3.38;;;16.90;99.90;;;;;;4989970;28;20394;-70
2022/06/12 02:56:18;;;;;;;4.55;3.10;;;16.90;99.90;;;;;;5021871;28;20060;-70
2022/06/12 02:58:57;;;;;;;4.32;3.10;;;16.90;99.90;;;;;;5024479;28;20113;-70
2022/06/12 03:01:33;;;;;;;5.10;3.03;;;16.80;99.90;;;;;;5017587;28;20026;-71
2022/06/12 03:04:12;;;;;;;7.25;3.30;;;16.70;99.90;;;;;;5031500;28;20029;-70
2022/06/12 03:06:40;;;;;;;5.05;3.78;;;16.60;99.90;;;;;;5027737;28;20501;-70
2022/06/12 03:09:06;;;;;;;6.50;4.43;;;16.60;99.90;;;;;;5010002;28;20599;-70
2022/06/12 03:11:36;;;;;;;7.15;4.38;;;16.50;99.90;;;;;;5016251;28;20084;-70
2022/06/12 03:14:08;;;;;;;7.45;4.00;;;16.50;99.90;;;;;;5023231;28;20040;-70
2022/06/12 03:16:37;;;;;;;5.03;3.55;;;16.50;99.90;;;;;;5030411;28;20164;-70
2022/06/12 03:19:03;;;;;;;4.53;3.50;;;16.50;99.90;;;;;;5020213;28;20032;-70
2022/06/12 03:21:43;;;;;;;6.60;4.10;;;16.40;99.90;;;;;;5028543;28;20390;-70
2022/06/12 03:24:30;;;;;;;4.18;3.70;;;16.40;99.90;;;;;;5026818;28;20025;-70
2022/06/12 03:26:55;;;;;;;5.82;3.30;;;16.40;99.90;;;;;;5029665;28;20379;-70
2022/06/12 03:29:47;;;;;;;5.25;3.40;;;16.40;99.90;;;;;;5025888;28;20087;-70
2022/06/12 03:32:41;;;;;;;6.72;3.78;;;16.40;99.90;;;;;;5026296;28;20026;-70
2022/06/12 03:35:34;;;;;;;7.03;3.80;;;16.40;99.90;;;;;;5009921;28;20054;-70
2022/06/12 03:38:02;;;;;;;4.37;3.57;;;16.40;99.90;;;;;;4985992;28;20042;-70
2022/06/12 03:40:56;;;;;;;5.30;3.30;;;16.40;99.90;;;;;;4988753;28;20065;-70
2022/06/12 03:43:45;;;;;;;5.13;3.83;;;16.40;99.90;;;;;;4991198;28;20037;-70
2022/06/12 03:46:17;;;;;;;6.40;4.32;;;16.50;99.90;;;;;;5003857;28;20029;-70
2022/06/12 03:48:52;;;;;;;5.05;4.47;;;16.50;99.90;;;;;;5005202;28;20049;-70
2022/06/12 03:51:31;;;;;;;5.20;4.50;;;16.60;99.90;;;;;;5004285;28;20033;-70
2022/06/12 03:54:15;;;;;;;10.50;4.93;;;16.60;99.90;;;;;;5004481;28;20121;-70
2022/06/12 03:59:38;;;;;;;6.25;4.63;;;16.70;99.90;;;;;;5001868;28;20573;-70
2022/06/12 04:02:08;;;;;;;7.47;4.40;;;16.70;99.90;;;;;;4993892;28;20085;-70
2022/06/12 04:04:35;;;;;;;7.45;5.38;;;16.60;99.90;;;;;;5005964;28;20133;-70
2022/06/12 04:07:04;;;;;;;7.28;5.10;;;16.60;99.90;;;;;;5006971;28;20038;-70
2022/06/12 04:09:34;;;;;;;8.05;5.30;;;16.60;99.90;;;;;;4998045;28;20031;-70
2022/06/12 04:12:04;;;;;;;5.47;4.90;;;16.70;99.90;;;;;;5001099;28;20516;-70
2022/06/12 04:14:36;;;;;;;8.18;5.45;;;16.70;99.90;;;;;;5007766;28;20026;-70
2022/06/12 04:17:05;;;;;;;6.63;4.50;;;17.50;99.90;;;;;;5006404;28;20101;-70
2022/06/12 04:19:58;;;;;;;4.75;3.95;;;19.20;99.90;;;;;;5004788;28;20161;-70
2022/06/12 04:22:19;;;;;;;5.32;4.30;;;20.10;99.90;;;;;;4994475;28;20427;-70
2022/06/12 04:24:49;;;;;;;6.15;4.00;;;20.10;99.90;;;;;;5006111;28;20116;-70
2022/06/12 04:27:26;;;;;;;4.30;3.63;;;19.90;99.90;;;;;;5001691;28;20848;-70
2022/06/12 04:30:04;;;;;;;5.88;3.85;;;19.30;99.90;;;;;;5000494;28;20054;-70
2022/06/12 04:32:30;;;;;;;3.90;3.40;;;18.80;99.90;;;;;;4993328;28;20033;-70
2022/06/12 04:34:57;;;;;;;6.63;3.97;;;18.40;99.90;;;;;;5007376;28;20449;-70
2022/06/12 04:37:29;;;;;;;6.80;4.57;;;18.20;99.90;;;;;;5002501;28;20092;-70
2022/06/12 04:39:57;;;;;;;7.97;5.28;;;17.90;99.90;;;;;;5002996;28;20508;-70
2022/06/12 04:42:25;;;;;;;14.23;5.50;;;17.80;99.90;;;;;;5005499;28;20061;-70
2022/06/12 04:44:52;;;;;;;8.55;4.95;;;17.80;99.90;;;;;;5006658;28;20643;-70
2022/06/12 04:47:22;;;;;;;7.45;4.90;;;17.90;99.90;;;;;;5003171;28;20576;-70
2022/06/12 04:49:48;;;;;;;4.97;4.47;;;18.00;99.90;;;;;;5004570;28;20147;-70
2022/06/12 04:52:15;;;;;;;5.80;5.18;;;18.10;99.90;;;;;;5001918;28;20571;-70
2022/06/12 04:54:42;;;;;;;5.75;5.20;;;18.20;99.90;;;;;;5007504;28;20030;-70
2022/06/12 04:57:10;;;;;;;7.22;5.15;;;18.30;99.90;;;;;;5006040;28;20478;-70
2022/06/12 04:59:37;;;;;;;9.93;4.85;;;18.50;99.90;;;;;;5004098;28;20429;-70
2022/06/12 05:02:04;;;;;;;6.80;4.97;;;18.60;99.90;;;;;;5003280;28;20728;-70
2022/06/12 05:04:30;;;;;;;9.15;5.32;;;18.80;99.90;;;;;;5004260;28;20673;-70
2022/06/12 05:06:56;;;;;;;6.68;5.18;;;18.90;99.90;;;;;;5001862;28;20040;-70
2022/06/12 05:09:26;;;;;;;9.13;5.32;;;19.10;99.90;;;;;;4997998;28;20034;-70
2022/06/12 05:11:52;;;;;;;7.80;4.80;;;19.20;99.90;;;;;;4999282;28;20389;-70
2022/06/12 05:14:18;;;;;;;9.55;5.22;;;19.20;99.90;;;;;;4998191;28;20034;-69
2022/06/12 05:16:59;;;;;;;7.75;4.90;;;19.30;99.90;;;;;;5006080;28;20026;-71
2022/06/12 05:19:30;;;;;;;7.45;4.15;;;19.20;99.90;;;;;;5003348;28;20052;-70
2022/06/12 05:21:56;;;;;;;7.88;4.03;;;19.30;99.90;;;;;;4991544;28;20037;-70
2022/06/12 05:24:22;;;;;;;11.95;4.13;;;19.50;99.90;;;;;;4994293;28;20101;-70
2022/06/12 05:26:49;;;;;;;7.75;4.35;;;19.60;99.90;;;;;;5005454;28;20435;-70
2022/06/12 05:29:28;;;;;;;7.85;3.92;;;19.70;99.90;;;;;;5001792;28;20030;-69
2022/06/12 05:31:56;;;;;;;9.18;3.80;;;20.00;99.90;;;;;;5000763;28;20393;-70
2022/06/12 05:34:22;;;;;;;5.57;3.53;;;20.10;99.90;;;;;;5011723;28;20229;-70
2022/06/12 05:36:49;;;;;;;8.30;3.83;;;20.20;99.90;;;;;;5016778;28;21213;-70
2022/06/12 05:39:15;;;;;;;9.73;4.07;;;20.30;99.90;;;;;;5021225;28;20030;-70
2022/06/12 05:41:41;;;;;;;6.05;3.70;;;20.50;99.90;;;;;;5021563;28;20824;-70
2022/06/12 05:44:07;;;;;;;5.53;3.90;;;20.70;99.90;;;;;;5025144;28;20063;-70
2022/06/12 05:46:33;;;;;;;10.68;3.83;;;21.00;99.90;;;;;;5022996;28;20049;-70
2022/06/12 05:48:58;;;;;;;6.60;3.60;;;21.10;99.90;;;;;;5020343;28;20051;-70
2022/06/12 05:51:24;;;;;;;6.93;3.92;;;21.30;99.90;;;;;;5021091;28;20118;-70
2022/06/12 05:53:50;;;;;;;5.22;3.85;;;21.40;99.90;;;;;;5023897;28;20067;-70
2022/06/12 05:56:20;;;;;;;6.40;3.42;;;21.40;99.90;;;;;;5013519;28;20087;-70
2022/06/12 05:58:46;;;;;;;7.18;3.60;;;21.40;99.90;;;;;;5018817;28;20021;-70
2022/06/12 06:01:14;;;;;;;6.10;3.25;;;21.50;99.90;;;;;;5009317;28;20055;-70
2022/06/12 06:03:40;;;;;;;7.40;4.00;;;21.60;99.90;;;;;;5011819;28;20757;-70
2022/06/12 06:06:07;;;;;;;5.72;3.63;;;21.70;99.90;;;;;;5012122;28;20029;-70
2022/06/12 06:08:33;;;;;;;5.82;3.28;;;21.70;99.90;;;;;;5006850;28;20026;-70
2022/06/12 06:10:59;;;;;;;8.68;3.63;;;21.80;99.90;;;;;;5018970;28;20589;-70
2022/06/12 06:13:24;;;;;;;7.05;3.28;;;21.80;99.90;;;;;;5016515;28;20037;-70
2022/06/12 06:15:50;;;;;;;6.07;3.70;;;21.80;99.90;;;;;;5023504;28;20061;-71
2022/06/12 06:18:17;;;;;;;6.85;3.47;;;21.80;99.90;;;;;;5021170;28;20082;-70
2022/06/12 06:20:44;;;;;;;6.13;3.70;;;21.90;99.90;;;;;;5015219;28;20506;-71
2022/06/12 06:23:09;;;;;;;4.65;3.50;;;22.00;99.90;;;;;;5024871;28;20041;-70
2022/06/12 06:25:36;;;;;;;5.72;3.63;;;22.00;99.90;;;;;;5016010;28;20026;-70
2022/06/12 06:28:02;;;;;;;6.22;3.60;;;22.10;99.90;;;;;;5014183;28;20512;-70
2022/06/12 06:30:28;;;;;;;4.97;2.85;;;22.20;99.90;;;;;;5017854;28;20029;-70
2022/06/12 06:32:54;;;;;;;6.53;3.50;;;22.30;99.90;;;;;;5017260;28;20034;-71
2022/06/12 06:35:21;;;;;;;8.65;3.15;;;22.50;99.90;;;;;;5016230;28;20064;-71
2022/06/12 06:37:49;;;;;;;7.93;2.90;;;22.60;99.90;;;;;;5020863;28;20064;-70
2022/06/12 06:40:15;;;;;;;6.85;3.00;;;22.70;99.90;;;;;;5013663;28;20120;-70
2022/06/12 06:42:41;;;;;;;4.75;2.80;;;22.90;99.90;;;;;;5023844;28;20029;-70
2022/06/12 06:47:52;;;;;;;5.53;2.78;;;23.10;99.90;;;;;;5022784;28;20060;-70
2022/06/12 06:50:19;;;;;;;8.13;3.20;;;;;;;;;;5017319;28;20034;-70
2022/06/12 06:52:44;;;;;;;4.63;2.75;;;23.20;99.90;;;;;;5013264;28;20033;-70
2022/06/12 06:55:11;;;;;;;6.25;2.78;;;23.30;99.90;;;;;;5019415;28;20490;-70
2022/06/12 06:57:43;;;;;;;6.40;2.65;;;23.40;99.90;;;;;;5016974;28;20517;-70
2022/06/12 07:00:13;;;;;;;6.53;3.00;;;23.50;99.90;;;;;;5022824;28;20045;-71
2022/06/12 07:02:40;;;;;;;7.65;2.72;;;23.40;99.90;;;;;;5021802;28;20030;-71
2022/06/12 07:05:06;;;;;;;5.47;2.53;;;23.50;99.90;;;;;;5027873;28;20112;-71
2022/06/12 07:07:34;;;;;;;6.72;2.60;;;23.60;99.90;;;;;;5030144;28;20398;-71
2022/06/12 07:10:01;;;;;;;4.97;2.53;;;23.80;99.90;;;;;;5026163;28;20060;-70
2022/06/12 07:12:26;;;;;;;6.05;2.58;;;23.80;99.90;;;;;;5025968;28;20037;-71
2022/06/12 07:14:52;;;;;;;6.57;2.95;;;24.00;99.90;;;;;;5021224;28;20025;-71
2022/06/12 07:17:17;;;;;;;10.27;2.90;;;24.10;99.90;;;;;;5029100;28;20045;-71
2022/06/12 07:19:44;;;;;;;9.25;2.60;;;24.20;99.90;;;;;;5022324;28;20057;-71
2022/06/12 07:22:10;;;;;;;6.97;2.58;;;24.30;99.90;;;;;;5023214;28;20101;-71
2022/06/12 07:24:36;;;;;;;7.85;2.63;;;24.30;99.90;;;;;;5028837;28;20553;-71
2022/06/12 07:27:01;;;;;;;8.20;2.40;;;24.50;99.90;;;;;;5014542;28;20474;-71
2022/06/12 07:29:27;;;;;;;7.82;2.47;;;24.60;99.20;;;;;;5018296;28;20146;-71
2022/06/12 07:31:53;;;;;;;6.70;2.55;;;24.80;99.30;;;;;;5010532;28;20030;-71
2022/06/12 07:34:18;;;;;;;6.50;2.30;;;24.90;98.10;;;;;;5017318;28;20417;-71
2022/06/12 07:36:47;;;;;;;6.68;2.10;;;25.10;96.40;;;;;;5022698;28;20221;-71
2022/06/12 07:39:18;;;;;;;10.57;2.22;;;25.10;94.40;;;;;;5025587;28;20108;-71
2022/06/12 07:41:47;;;;;;;6.65;2.20;;;25.20;93.80;;;;;;5028204;28;20021;-71
2022/06/12 07:44:14;;;;;;;10.60;1.98;;;25.30;93.20;;;;;;5025588;28;20032;-71
2022/06/12 07:46:40;;;;;;;7.28;2.13;;;25.40;91.50;;;;;;5020089;28;20022;-71
2022/06/12 07:49:06;;;;;;;7.72;1.98;;;25.50;89.50;;;;;;5023951;28;20504;-70
2022/06/12 07:51:31;;;;;;;10.70;1.90;;;25.70;89.20;;;;;;5023110;28;20045;-71
2022/06/12 07:53:57;;;;;;;7.25;2.10;;;25.70;87.10;;;;;;5025468;28;20021;-71
2022/06/12 07:56:25;;;;;;;6.20;1.98;;;25.90;86.50;;;;;;5026408;28;20087;-71
2022/06/12 07:58:50;;;;;;;7.10;2.10;;;25.90;82.90;;;;;;5022934;28;20040;-70
2022/06/12 08:01:19;;;;;;;8.38;2.00;;;25.80;80.70;;;;;;5020653;28;20265;-71
2022/06/12 08:03:45;;;;;;;6.43;1.73;;;25.80;80.60;;;;;;5022380;28;20042;-71
2022/06/12 08:06:10;;;;;;;9.15;2.30;;;25.90;82.60;;;;;;5028574;28;20041;-70
2022/06/12 08:08:36;;;;;;;9.85;2.10;;;26.10;80.90;;;;;;5024278;28;20017;-71
2022/06/12 08:11:02;;;;;;;10.20;2.33;;;26.10;75.80;;;;;;5019972;28;20037;-71
2022/06/12 08:13:29;;;;;;;8.70;2.30;;;26.10;74.80;;;;;;5013155;28;20108;-71
2022/06/12 08:15:56;;;;;;;8.23;2.05;;;26.20;76.70;;;;;;5025719;28;20397;-71
2022/06/12 08:18:22;;;;;;;9.57;1.85;;;26.30;77.20;;;;;;5022255;28;20460;-70
2022/06/12 08:20:54;;;;;;;6.93;1.83;;;26.50;75.90;;;;;;5024189;28;20035;-70
2022/06/12 08:23:34;;;;;;;5.95;1.77;;;26.70;74.90;;;;;;5025173;28;20037;-70
2022/06/12 08:26:08;;;;;;;5.75;1.73;;;26.90;75.10;;;;;;5010423;28;20030;-70
2022/06/12 08:28:42;;;;;;;8.30;2.05;;;27.00;72.60;;;;;;5014464;28;20069;-71
2022/06/12 08:31:11;;;;;;;5.63;1.80;;;26.90;71.10;;;;;;5012223;28;20144;-70
2022/06/12 08:33:38;;;;;;;5.30;1.65;;;26.90;70.00;;;;;;5019871;28;20060;-70
2022/06/12 08:36:07;;;;;;;9.52;2.17;;;26.90;69.50;;;;;;5025035;28;20504;-71
2022/06/12 08:38:32;;;;;;;5.53;1.60;;;26.80;70.40;;;;;;5022080;28;20041;-70
2022/06/12 08:41:08;;;;;;;6.68;1.98;;;26.80;72.50;;;;;;5021257;28;20037;-71
2022/06/12 08:43:38;;;;;;;8.35;1.83;;;26.90;71.10;;;;;;5019685;28;20033;-71
2022/06/12 08:46:13;;;;;;;7.13;1.88;;;26.90;69.50;;;;;;5012404;28;20090;-71
2022/06/12 08:49:02;;;;;;;5.93;1.52;;;26.70;68.90;;;;;;5021382;28;20025;-71
2022/06/12 08:51:42;;;;;;;6.90;1.90;;;26.70;70.60;;;;;;5020432;28;20239;-71
2022/06/12 08:54:16;;;;;;;4.88;1.80;;;26.90;70.40;;;;;;5027771;28;20029;-71
2022/06/12 08:56:57;;;;;;;6.70;2.13;;;26.80;69.70;;;;;;5024506;28;20349;-71
2022/06/12 08:59:34;;;;;;;6.07;2.10;;;26.90;70.60;;;;;;5021565;28;20104;-71
2022/06/12 09:02:04;;;;;;;7.13;1.70;;;26.70;70.70;;;;;;5021719;28;20124;-71
2022/06/12 09:04:30;;;;;;;7.95;1.73;;;26.60;70.60;;;;;;5022158;28;20052;-71
2022/06/12 09:07:12;;;;;;;4.20;1.55;;;26.70;71.00;;;;;;5018373;28;20059;-71
2022/06/12 09:09:47;;;;;;;5.85;1.52;;;26.70;70.20;;;;;;5023174;28;20427;-71
2022/06/12 09:12:26;;;;;;;5.95;1.70;;;27.00;67.60;;;;;;5023300;28;20022;-71
2022/06/12 09:15:17;;;;;;;6.13;1.73;;;27.10;65.80;;;;;;5022653;28;20022;-71
2022/06/12 09:17:59;;;;;;;5.35;1.63;;;27.30;65.70;;;;;;5016553;28;20137;-71
2022/06/12 09:20:43;;;;;;;4.38;1.35;;;27.40;63.40;;;;;;5024968;28;20117;-70
2022/06/12 09:23:45;;;;;;;4.30;1.50;;;27.50;62.80;;;;;;5027141;28;20409;-71
2022/06/12 09:26:36;;;;;;;7.70;1.73;;;27.60;65.70;;;;;;5026355;28;20087;-70
2022/06/12 09:29:23;;;;;;;5.43;1.55;;;27.70;62.90;;;;;;5009301;28;20029;-71
2022/06/12 09:32:07;;;;;;;4.43;1.42;;;27.80;63.80;;;;;;5022143;28;20021;-71
2022/06/12 09:34:48;;;;;;;6.68;1.42;;;28.00;63.70;;;;;;5022794;28;20052;-70
2022/06/12 09:40:37;;;;;;;3.65;1.23;;;28.20;62.90;;;;;;5023093;28;20041;-71
2022/06/12 09:43:27;;;;;;;3.75;1.58;;;28.40;62.40;;;;;;5015901;28;20087;-71
2022/06/12 09:46:00;;;;;;;4.72;1.50;;;28.30;62.30;;;;;;5023144;28;20030;-70
2022/06/12 09:48:55;;;;;;;5.50;1.40;;;28.40;62.70;;;;;;5016876;28;20362;-71
2022/06/12 09:51:26;;;;;;;3.58;1.48;;;28.50;60.40;;;;;;4988183;28;20033;-71
2022/06/12 09:54:02;;;;;;;6.03;1.55;;;28.30;60.50;;;;;;5012658;28;20029;-71
2022/06/12 09:56:45;;;;;;;6.65;1.50;;;28.40;89.80;;;;;;5020613;28;20104;-71
2022/06/12 09:59:17;;;;;;;5.20;1.73;;;28.30;79.10;;;;;;5021976;28;20090;-71
2022/06/12 10:01:45;;;;;;;5.38;1.45;;;28.30;74.60;;;;;;5024814;28;20041;-71
2022/06/12 10:04:21;;;;;;;5.75;1.77;;;27.90;60.70;;;;;;5017067;28;20033;-71
2022/06/12 10:06:52;;;;;;;3.42;1.60;;;27.70;61.50;;;;;;5013504;28;20026;-70
2022/06/12 10:09:33;;;;;;;4.72;1.70;;;27.40;60.70;;;;;;5019554;28;20160;-71
2022/06/12 10:12:10;;;;;;;3.80;1.40;;;27.30;61.10;;;;;;5023447;28;20021;-71
2022/06/12 10:14:47;;;;;;;5.47;1.58;;;27.20;61.90;;;;;;5024083;28;20038;-71
2022/06/12 10:17:22;;;;;;;2.72;1.30;;;27.30;60.70;;;;;;5011647;28;20037;-70
2022/06/12 10:19:59;;;;;;;5.32;1.70;;;27.40;56.20;;;;;;5011110;28;20472;-71
2022/06/12 10:22:30;;;;;;;5.15;1.60;;;27.60;56.80;;;;;;5024793;28;20044;-71
2022/06/12 10:24:57;;;;;;;6.38;3.33;;;;;;;;;;5019731;28;20038;-71
2022/06/12 10:27:23;;;;;;;12.38;6.55;;;;;;;;;;5017538;28;20029;-71
2022/06/12 10:29:51;;;;;;;2.97;1.27;;;28.10;56.70;;;;;;5020642;28;20045;-71
2022/06/12 10:32:24;;;;;;;1.65;1.10;;;28.20;57.60;;;;;;5021500;28;20490;-71
2022/06/12 10:34:51;;;;;;;5.75;1.40;;;28.40;57.00;;;;;;5016006;28;20058;-71
2022/06/12 10:37:28;;;;;;;3.65;1.30;;;28.40;55.60;;;;;;5017980;28;20037;-70
2022/06/12 10:40:14;;;;;;;4.05;1.27;;;28.40;56.50;;;;;;5023990;28;20033;-70
2022/06/12 10:42:55;;;;;;;5.22;1.40;;;28.40;54.80;;;;;;5021120;28;20497;-70
2022/06/12 10:45:23;;;;;;;2.08;0.88;;;28.10;54.90;;;;;;5019534;28;20087;-70
2022/06/12 10:47:50;;;;;;;3.30;1.20;;;28.10;56.00;;;;;;5018782;28;20026;-70
2022/06/12 10:50:32;;;;;;;4.95;1.20;;;28.10;54.30;;;;;;5023515;28;20038;-70
2022/06/12 10:53:00;;;;;;;3.45;1.10;;;28.00;55.50;;;;;;5027761;28;20493;-70
2022/06/12 10:55:51;;;;;;;4.70;1.02;;;28.00;55.60;;;;;;5027121;28;20025;-70
2022/06/12 10:58:28;;;;;;;3.50;1.17;;;27.90;56.20;;;;;;5019391;28;20033;-70
2022/06/12 11:00:59;;;;;;;2.75;1.10;;;28.00;55.40;;;;;;5028695;28;20091;-70
2022/06/12 11:03:42;;;;;;;5.32;1.20;;;28.00;56.00;;;;;;5025930;28;20036;-69
2022/06/12 11:06:18;;;;;;;3.88;1.27;;;27.90;55.60;;;;;;5013605;28;20116;-70
2022/06/12 11:08:56;;;;;;;7.97;1.38;;;27.90;55.50;;;;;;5009327;28;20530;-70
2022/06/12 11:11:50;;;;;;;5.30;1.33;;;28.00;56.00;;;;;;5022223;28;20029;-70
2022/06/12 11:14:28;;;;;;;;;;;28.20;56.00;;;;;;5024532;28;20549;-70
2022/06/12 11:17:25;;;;;;;2.50;1.10;;;28.30;52.40;;;;;;5028823;28;19909;-70
2022/06/12 11:20:16;;;;;;;2.65;1.05;;;28.20;51.50;;;;;;5022220;28;20382;-70
2022/06/12 11:23:15;;;;;;;2.13;0.90;;;27.90;52.80;;;;;;5025577;28;20444;-70
2022/06/12 11:26:05;;;;;;;1.88;1.10;;;27.90;53.70;;;;;;5028679;28;20049;-71
2022/06/12 11:28:57;;;;;;;5.13;1.15;;;28.00;53.00;;;;;;5021611;28;20128;-70
2022/06/12 11:31:41;;;;;;;4.53;1.27;;;27.80;51.10;;;;;;5016197;28;20125;-70
2022/06/12 11:34:27;;;;;;;2.47;1.00;;;27.80;52.40;;;;;;5016745;28;20068;-70
2022/06/12 11:36:53;;;;;;;2.92;1.00;;;27.90;54.00;;;;;;5030267;28;20370;-71
2022/06/12 11:39:40;;;;;;;3.05;0.90;;;28.10;52.90;;;;;;5024945;28;20026;-70
2022/06/12 11:42:18;;;;;;;2.47;0.90;;;28.20;52.60;;;;;;5012884;28;20485;-71
2022/06/12 11:45:04;;;;;;;3.05;1.10;;;28.20;54.00;;;;;;5021113;28;20077;-71
2022/06/12 11:47:50;;;;;;;2.63;1.10;;;27.90;52.90;;;;;;5023762;28;20032;-70
2022/06/12 11:50:31;;;;;;;2.55;1.10;;;27.70;52.00;;;;;;5023302;28;20029;-70
2022/06/12 11:53:30;;;;;;;2.55;1.20;;;27.80;52.90;;;;;;5024397;28;20037;-69
2022/06/12 11:56:27;;;;;;;2.55;0.90;;;28.00;53.20;;;;;;4976391;28;20121;-70
2022/06/12 11:59:31;;;;;;;3.90;1.05;;;28.30;51.90;;;;;;5005164;28;20033;-69
2022/06/12 12:02:32;;;;;;;4.13;1.20;;;28.60;64.10;;;;;;5018171;28;20055;-70
2022/06/12 12:05:19;;;;;;;2.55;1.10;;;29.00;60.70;;;;;;4987100;28;20041;-70
2022/06/12 12:07:59;;;;;;;2.35;1.00;;;29.00;60.00;;;;;;5018721;28;20029;-70
2022/06/12 12:10:30;;;;;;;3.25;0.90;;;29.00;59.50;;;;;;5010169;28;20092;-70
2022/06/12 12:13:05;;;;;;;3.88;1.05;;;28.90;58.50;;;;;;5020112;28;20283;-70
2022/06/12 12:15:37;;;;;;;1.88;0.75;;;29.00;46.90;;;;;;5026334;28;20036;-70
2022/06/12 12:18:05;;;;;;;1.90;0.82;;;29.10;47.90;;;;;;5025243;28;20068;-70
2022/06/12 12:20:40;;;;;;;3.50;1.00;;;29.20;48.00;;;;;;5015601;28;20056;-71
2022/06/12 12:23:11;;;;;;;3.05;0.98;;;29.20;49.00;;;;;;5020990;28;20034;-70
2022/06/12 12:25:50;;;;;;;2.10;0.90;;;29.40;47.50;;;;;;5016839;28;20088;-70
2022/06/12 12:28:40;;;;;;;1.40;0.70;;;29.60;46.40;;;;;;5015238;28;20041;-70
2022/06/12 12:31:15;;;;;;;2.58;0.80;;;29.80;47.60;;;;;;5026145;28;20029;-70
2022/06/12 12:33:43;;;;;;;1.95;0.90;;;29.70;44.20;;;;;;5021967;28;20057;-70
2022/06/12 12:41:51;;;;;;;3.20;1.10;;;29.90;43.80;;;;;;5014808;28;20036;-71
2022/06/12 12:44:34;;;;;;;1.95;0.95;;;29.90;44.40;;;;;;5019652;28;20757;-70
2022/06/12 12:47:01;;;;;;;3.45;0.90;;;29.90;45.50;;;;;;5029134;28;20042;-70
2022/06/12 12:49:34;;;;;;;2.65;0.88;;;29.90;44.70;;;;;;5015199;28;20416;-70
2022/06/12 12:52:11;;;;;;;3.08;0.90;;;30.00;44.60;;;;;;5020925;28;20034;-70
2022/06/12 12:54:42;;;;;;;2.63;1.00;;;30.10;45.50;;;;;;5019315;28;20025;-70
2022/06/12 12:57:08;;;;;;;2.40;0.90;;;30.20;45.20;;;;;;5024121;28;20029;-69
2022/06/12 12:59:50;;;;;;;2.92;1.00;;;30.30;43.40;;;;;;5020453;28;20029;-70
2022/06/12 13:02:22;;;;;;;3.43;0.80;;;30.30;44.20;;;;;;5017485;28;20037;-70
2022/06/12 13:04:50;;;;;;;3.03;0.87;;;30.40;42.70;;;;;;5023811;28;20026;-70
2022/06/12 13:07:51;;;;;;;2.63;1.10;;;30.40;42.60;;;;;;5025584;28;20712;-70
2022/06/12 13:10:29;;;;;;;2.20;0.80;;;30.50;44.20;;;;;;5018751;28;20030;-70
2022/06/12 13:13:13;;;;;;;3.15;0.88;;;30.50;43.20;;;;;;5026118;28;20076;-70
2022/06/12 13:16:02;;;;;;;1.90;1.00;;;30.50;42.80;;;;;;4675443;28;9999931;-70
2022/06/12 13:18:49;;;;;;;1.73;0.88;;;30.50;41.50;;;;;;5020961;28;20029;-69
2022/06/12 13:21:18;;;;;;;1.58;0.80;;;30.40;41.90;;;;;;5024503;28;20369;-69
2022/06/12 13:23:59;;;;;;;1.63;0.90;;;30.30;40.90;;;;;;5019145;28;20098;-69
2022/06/12 13:26:28;;;;;;;2.10;1.00;;;30.20;41.10;;;;;;5018217;28;20063;-70
2022/06/12 13:29:00;;;;;;;3.22;0.82;;;30.10;42.30;;;;;;5020171;28;20033;-69
2022/06/12 13:31:33;;;;;;;1.83;0.90;;;29.90;42.20;;;;;;5014448;28;20033;-70
2022/06/12 13:34:01;;;;;;;2.17;0.90;;;29.60;42.50;;;;;;5023429;28;20087;-69
2022/06/12 13:36:33;;;;;;;1.88;0.90;;;29.40;43.50;;;;;;5023509;28;20091;-70
2022/06/12 13:39:03;;;;;;;2.95;0.98;;;29.50;45.00;;;;;;5021366;28;20071;-70
2022/06/12 13:41:34;;;;;;;1.63;0.90;;;29.70;43.20;;;;;;5013066;28;20081;-70